sensor_id;sensor_type;location;lat;lon;timestamp;temperature;humidity
22698;DHT22;11516;51.612;7.510;2023-02-28T00:00:33;1.40;99.90
22698;DHT22;11516;51.612;7.510;2023-02-28T00:03:00;1.40;99.90
22698;DHT22;11516;51.612;7.510;2023-02-28T00:05:27;1.40;99.90
22698;DHT22;11516;51.612;7.510;2023-02-28T00:07:53;1.30;99.90
22698;DHT22;11516;51.612;7.510;2023-02-28T00:10:25;1.40;99.90
22698;DHT22;11516;51.612;7.510;2023-02-28T00:12:53;1.30;99.90
22698;DHT22;11516;51.612;7.510;2023-02-28T00:15:19;1.30;99.90
22698;DHT22;11516;51.612;7.510;2023-02-28T00:17:45;1.20;99.90
22698;DHT22;11516;51.612;7.510;2023-02-28T00:20:12;1.20;99.90
22698;DHT22;11516;51.612;7.510;2023-02-28T00:22:40;1.20;99.90
22698;DHT22;11516;51.612;7.510;2023-02-28T00:25:07;1.20;99.90
22698;DHT22;11516;51.612;7.510;2023-02-28T00:27:35;1.20;99.90
22698;DHT22;11516;51.612;7.510;2023-02-28T00:30:00;1.10;99.90
22698;DHT22;11516;51.612;7.510;2023-02-28T00:32:26;1.10;99.90
22698;DHT22;11516;51.612;7.510;2023-02-28T00:34:52;1.10;99.90
22698;DHT22;11516;51.612;7.510;2023-02-28T00:37:17;1.10;99.90
22698;DHT22;11516;51.612;7.510;2023-02-28T00:39:43;1.10;99.90
22698;DHT22;11516;51.612;7.510;2023-02-28T00:42:08;1.10;99.90
22698;DHT22;11516;51.612;7.510;2023-02-28T00:44:34;1.00;99.90
22698;DHT22;11516;51.612;7.510;2023-02-28T00:47:00;1.00;99.90
22698;DHT22;11516;51.612;7.510;2023-02-28T00:49:26;1.00;99.90
22698;DHT22;11516;51.612;7.510;2023-02-28T00:51:53;0.90;99.90
22698;DHT22;11516;51.612;7.510;2023-02-28T00:54:21;0.90;99.90
22698;DHT22;11516;51.612;7.510;2023-02-28T00:56:47;0.80;99.90
22698;DHT22;11516;51.612;7.510;2023-02-28T00:59:13;0.80;99.90
22698;DHT22;11516;51.612;7.510;2023-02-28T01:01:40;0.70;99.90
22698;DHT22;11516;51.612;7.510;2023-02-28T01:04:06;0.60;99.90
22698;DHT22;11516;51.612;7.510;2023-02-28T01:06:31;0.60;99.90
22698;DHT22;11516;51.612;7.510;2023-02-28T01:08:57;0.60;99.90
22698;DHT22;11516;51.612;7.510;2023-02-28T01:11:23;0.40;99.90
22698;DHT22;11516;51.612;7.510;2023-02-28T01:13:49;0.40;99.90
22698;DHT22;11516;51.612;7.510;2023-02-28T01:16:14;0.40;99.90
22698;DHT22;11516;51.612;7.510;2023-02-28T01:18:40;0.30;99.90
22698;DHT22;11516;51.612;7.510;2023-02-28T01:21:07;0.30;99.90
22698;DHT22;11516;51.612;7.510;2023-02-28T01:23:32;0.20;99.90
22698;DHT22;11516;51.612;7.510;2023-02-28T01:26:05;0.20;99.90
22698;DHT22;11516;51.612;7.510;2023-02-28T01:28:31;0.20;99.90
22698;DHT22;11516;51.612;7.510;2023-02-28T01:30:56;0.10;99.90
22698;DHT22;11516;51.612;7.510;2023-02-28T01:33:22;0.00;99.90
22698;DHT22;11516;51.612;7.510;2023-02-28T01:35:48;-0.10;99.90
22698;DHT22;11516;51.612;7.510;2023-02-28T01:38:13;-0.10;99.90
22698;DHT22;11516;51.612;7.510;2023-02-28T01:40:39;-0.10;99.90
22698;DHT22;11516;51.612;7.510;2023-02-28T01:43:19;-0.10;99.90
22698;DHT22;11516;51.612;7.510;2023-02-28T01:45:45;-0.10;99.90
22698;DHT22;11516;51.612;7.510;2023-02-28T01:48:10;-0.20;99.90
22698;DHT22;11516;51.612;7.510;2023-02-28T01:50:41;-0.20;99.90
22698;DHT22;11516;51.612;7.510;2023-02-28T01:53:12;-0.20;99.90
22698;DHT22;11516;51.612;7.510;2023-02-28T01:55:40;-0.20;99.90
22698;DHT22;11516;51.612;7.510;2023-02-28T01:58:08;-0.30;99.90
22698;DHT22;11516;51.612;7.510;2023-02-28T02:00:34;-0.30;99.90
22698;DHT22;11516;51.612;7.510;2023-02-28T02:03:06;-0.30;99.90
22698;DHT22;11516;51.612;7.510;2023-02-28T02:05:34;-0.40;99.90
22698;DHT22;11516;51.612;7.510;2023-02-28T02:08:04;-0.40;99.90
22698;DHT22;11516;51.612;7.510;2023-02-28T02:10:39;-0.40;99.90
22698;DHT22;11516;51.612;7.510;2023-02-28T02:18:47;-0.50;99.90
22698;DHT22;11516;51.612;7.510;2023-02-28T02:21:27;-0.40;99.90
22698;DHT22;11516;51.612;7.510;2023-02-28T02:30:00;-0.50;99.90
22698;DHT22;11516;51.612;7.510;2023-02-28T02:36:20;-0.60;99.90
22698;DHT22;11516;51.612;7.510;2023-02-28T02:41:52;-0.60;99.90
22698;DHT22;11516;51.612;7.510;2023-02-28T02:44:23;-0.70;99.90
22698;DHT22;11516;51.612;7.510;2023-02-28T02:46:53;-0.60;99.90
22698;DHT22;11516;51.612;7.510;2023-02-28T02:49:24;-0.60;99.90
22698;DHT22;11516;51.612;7.510;2023-02-28T02:51:52;-0.60;99.90
22698;DHT22;11516;51.612;7.510;2023-02-28T02:54:25;-0.60;99.90
22698;DHT22;11516;51.612;7.510;2023-02-28T02:56:59;-0.60;99.90
22698;DHT22;11516;51.612;7.510;2023-02-28T02:59:25;-0.60;99.90
22698;DHT22;11516;51.612;7.510;2023-02-28T03:01:57;-0.60;99.90
22698;DHT22;11516;51.612;7.510;2023-02-28T03:04:25;-0.60;99.90
22698;DHT22;11516;51.612;7.510;2023-02-28T03:06:52;-0.60;99.90
22698;DHT22;11516;51.612;7.510;2023-02-28T03:09:24;-0.60;99.90
22698;DHT22;11516;51.612;7.510;2023-02-28T03:11:52;-0.60;99.90
22698;DHT22;11516;51.612;7.510;2023-02-28T03:14:36;-0.60;99.90
22698;DHT22;11516;51.612;7.510;2023-02-28T03:17:31;-0.70;99.90
22698;DHT22;11516;51.612;7.510;2023-02-28T03:20:12;-0.70;99.90
22698;DHT22;11516;51.612;7.510;2023-02-28T03:25:54;-0.70;99.90
22698;DHT22;11516;51.612;7.510;2023-02-28T03:28:32;-0.80;99.90
22698;DHT22;11516;51.612;7.510;2023-02-28T03:33:58;-0.80;99.90
22698;DHT22;11516;51.612;7.510;2023-02-28T03:36:39;-0.80;99.90
22698;DHT22;11516;51.612;7.510;2023-02-28T03:39:27;-0.80;99.90
22698;DHT22;11516;51.612;7.510;2023-02-28T03:42:03;-0.80;99.90
22698;DHT22;11516;51.612;7.510;2023-02-28T03:44:43;-0.80;99.90
22698;DHT22;11516;51.612;7.510;2023-02-28T03:47:14;-0.80;99.90
22698;DHT22;11516;51.612;7.510;2023-02-28T03:50:27;-0.80;99.90
22698;DHT22;11516;51.612;7.510;2023-02-28T03:52:36;-0.90;99.90
22698;DHT22;11516;51.612;7.510;2023-02-28T03:55:07;-0.90;99.90
22698;DHT22;11516;51.612;7.510;2023-02-28T04:00:08;-1.00;99.90
22698;DHT22;11516;51.612;7.510;2023-02-28T04:02:35;-0.90;99.90
22698;DHT22;11516;51.612;7.510;2023-02-28T04:05:01;-0.90;99.90
22698;DHT22;11516;51.612;7.510;2023-02-28T04:07:30;-1.00;99.90
22698;DHT22;11516;51.612;7.510;2023-02-28T04:09:56;-0.90;99.90
22698;DHT22;11516;51.612;7.510;2023-02-28T04:12:22;-1.00;99.90
22698;DHT22;11516;51.612;7.510;2023-02-28T04:14:48;-1.00;99.90
22698;DHT22;11516;51.612;7.510;2023-02-28T04:17:14;-1.00;99.90
22698;DHT22;11516;51.612;7.510;2023-02-28T04:19:40;-1.00;99.90
22698;DHT22;11516;51.612;7.510;2023-02-28T04:22:06;-1.00;99.90
22698;DHT22;11516;51.612;7.510;2023-02-28T04:24:31;-1.00;99.90
22698;DHT22;11516;51.612;7.510;2023-02-28T04:26:57;-1.00;99.90
22698;DHT22;11516;51.612;7.510;2023-02-28T04:29:29;-1.00;99.90
22698;DHT22;11516;51.612;7.510;2023-02-28T04:31:56;-1.00;99.90
22698;DHT22;11516;51.612;7.510;2023-02-28T04:34:27;-1.00;99.90
22698;DHT22;11516;51.612;7.510;2023-02-28T04:36:55;-1.00;99.90
22698;DHT22;11516;51.612;7.510;2023-02-28T04:39:22;-1.00;99.90
22698;DHT22;11516;51.612;7.510;2023-02-28T04:41:48;-1.00;99.90
22698;DHT22;11516;51.612;7.510;2023-02-28T04:44:14;-1.00;99.90
22698;DHT22;11516;51.612;7.510;2023-02-28T04:46:40;-1.00;99.90
22698;DHT22;11516;51.612;7.510;2023-02-28T04:49:06;-1.00;99.90
22698;DHT22;11516;51.612;7.510;2023-02-28T04:51:31;-1.00;99.90
22698;DHT22;11516;51.612;7.510;2023-02-28T04:53:57;-1.00;99.90
22698;DHT22;11516;51.612;7.510;2023-02-28T04:56:23;-1.00;99.90
22698;DHT22;11516;51.612;7.510;2023-02-28T04:58:49;-0.90;99.90
22698;DHT22;11516;51.612;7.510;2023-02-28T05:01:40;-0.90;99.90
22698;DHT22;11516;51.612;7.510;2023-02-28T05:04:10;-1.00;99.90
22698;DHT22;11516;51.612;7.510;2023-02-28T05:06:36;-1.00;99.90
22698;DHT22;11516;51.612;7.510;2023-02-28T05:09:01;-1.00;99.90
22698;DHT22;11516;51.612;7.510;2023-02-28T05:11:29;-1.10;99.90
22698;DHT22;11516;51.612;7.510;2023-02-28T05:14:03;-1.10;99.90
22698;DHT22;11516;51.612;7.510;2023-02-28T05:16:30;-1.00;99.90
22698;DHT22;11516;51.612;7.510;2023-02-28T05:18:56;-1.00;99.90
22698;DHT22;11516;51.612;7.510;2023-02-28T05:24:01;-1.10;99.90
22698;DHT22;11516;51.612;7.510;2023-02-28T05:26:27;-1.20;99.90
22698;DHT22;11516;51.612;7.510;2023-02-28T05:28:53;-1.20;99.90
22698;DHT22;11516;51.612;7.510;2023-02-28T05:31:18;-1.20;99.90
22698;DHT22;11516;51.612;7.510;2023-02-28T05:33:44;-1.20;99.90
22698;DHT22;11516;51.612;7.510;2023-02-28T05:36:10;-1.20;99.90
22698;DHT22;11516;51.612;7.510;2023-02-28T05:38:35;-1.30;99.90
22698;DHT22;11516;51.612;7.510;2023-02-28T05:41:07;-1.30;99.90
22698;DHT22;11516;51.612;7.510;2023-02-28T05:43:33;-1.30;99.90
22698;DHT22;11516;51.612;7.510;2023-02-28T05:46:01;-1.30;99.90
22698;DHT22;11516;51.612;7.510;2023-02-28T05:48:27;-1.30;99.90
22698;DHT22;11516;51.612;7.510;2023-02-28T05:50:52;-1.40;99.90
22698;DHT22;11516;51.612;7.510;2023-02-28T05:53:18;-1.40;99.90
22698;DHT22;11516;51.612;7.510;2023-02-28T05:55:43;-1.40;99.90
22698;DHT22;11516;51.612;7.510;2023-02-28T05:58:09;-1.50;99.90
22698;DHT22;11516;51.612;7.510;2023-02-28T06:00:34;-1.50;99.90
22698;DHT22;11516;51.612;7.510;2023-02-28T06:03:00;-1.50;99.90
22698;DHT22;11516;51.612;7.510;2023-02-28T06:05:28;-1.50;99.90
22698;DHT22;11516;51.612;7.510;2023-02-28T06:07:54;-1.50;99.90
22698;DHT22;11516;51.612;7.510;2023-02-28T06:10:19;-1.50;99.90
22698;DHT22;11516;51.612;7.510;2023-02-28T06:12:45;-1.50;99.90
22698;DHT22;11516;51.612;7.510;2023-02-28T06:15:14;-1.40;99.90
22698;DHT22;11516;51.612;7.510;2023-02-28T06:17:44;-1.40;99.90
22698;DHT22;11516;51.612;7.510;2023-02-28T06:20:11;-1.40;99.90
22698;DHT22;11516;51.612;7.510;2023-02-28T06:22:38;-1.40;99.90
22698;DHT22;11516;51.612;7.510;2023-02-28T06:25:04;-1.50;99.90
22698;DHT22;11516;51.612;7.510;2023-02-28T06:27:31;-1.50;99.90
22698;DHT22;11516;51.612;7.510;2023-02-28T06:29:57;-1.60;99.90
22698;DHT22;11516;51.612;7.510;2023-02-28T06:32:22;-1.50;99.90
22698;DHT22;11516;51.612;7.510;2023-02-28T06:34:48;-1.60;99.90
22698;DHT22;11516;51.612;7.510;2023-02-28T06:37:14;-1.60;99.90
22698;DHT22;11516;51.612;7.510;2023-02-28T06:39:39;-1.60;99.90
22698;DHT22;11516;51.612;7.510;2023-02-28T06:42:05;-1.50;99.90
22698;DHT22;11516;51.612;7.510;2023-02-28T06:44:30;-1.50;99.90
22698;DHT22;11516;51.612;7.510;2023-02-28T06:47:00;-1.50;99.90
22698;DHT22;11516;51.612;7.510;2023-02-28T06:49:29;-1.40;99.90
22698;DHT22;11516;51.612;7.510;2023-02-28T06:51:54;-1.50;99.90
22698;DHT22;11516;51.612;7.510;2023-02-28T06:54:20;-1.50;99.90
22698;DHT22;11516;51.612;7.510;2023-02-28T06:56:45;-1.40;99.90
22698;DHT22;11516;51.612;7.510;2023-02-28T06:59:12;-1.40;99.90
22698;DHT22;11516;51.612;7.510;2023-02-28T07:01:38;-1.50;99.90
22698;DHT22;11516;51.612;7.510;2023-02-28T07:04:05;-1.40;99.90
22698;DHT22;11516;51.612;7.510;2023-02-28T07:06:31;-1.40;99.90
22698;DHT22;11516;51.612;7.510;2023-02-28T07:08:57;-1.30;99.90
22698;DHT22;11516;51.612;7.510;2023-02-28T07:11:24;-1.30;99.90
22698;DHT22;11516;51.612;7.510;2023-02-28T07:13:51;-1.20;99.90
22698;DHT22;11516;51.612;7.510;2023-02-28T07:16:17;-1.20;99.90
22698;DHT22;11516;51.612;7.510;2023-02-28T07:18:43;-1.20;99.90
22698;DHT22;11516;51.612;7.510;2023-02-28T07:21:10;-1.20;99.90
22698;DHT22;11516;51.612;7.510;2023-02-28T07:23:36;-1.10;99.90
22698;DHT22;11516;51.612;7.510;2023-02-28T07:26:04;-1.10;99.90
22698;DHT22;11516;51.612;7.510;2023-02-28T07:28:30;-1.20;99.90
22698;DHT22;11516;51.612;7.510;2023-02-28T07:30:55;-1.10;99.90
22698;DHT22;11516;51.612;7.510;2023-02-28T07:33:21;-1.10;99.90
22698;DHT22;11516;51.612;7.510;2023-02-28T07:35:46;-1.10;99.90
22698;DHT22;11516;51.612;7.510;2023-02-28T07:38:12;-1.10;99.90
22698;DHT22;11516;51.612;7.510;2023-02-28T07:40:39;-1.00;99.90
22698;DHT22;11516;51.612;7.510;2023-02-28T07:43:04;-1.00;99.90
22698;DHT22;11516;51.612;7.510;2023-02-28T07:45:30;-1.00;99.90
22698;DHT22;11516;51.612;7.510;2023-02-28T07:47:59;-0.90;99.90
22698;DHT22;11516;51.612;7.510;2023-02-28T07:50:25;-0.80;99.90
22698;DHT22;11516;51.612;7.510;2023-02-28T07:52:50;-0.70;99.90
22698;DHT22;11516;51.612;7.510;2023-02-28T07:55:16;-0.70;99.90
22698;DHT22;11516;51.612;7.510;2023-02-28T07:57:42;-0.50;99.90
22698;DHT22;11516;51.612;7.510;2023-02-28T08:00:09;-0.60;99.90
22698;DHT22;11516;51.612;7.510;2023-02-28T08:02:35;-0.50;99.90
22698;DHT22;11516;51.612;7.510;2023-02-28T08:05:01;-0.40;99.90
22698;DHT22;11516;51.612;7.510;2023-02-28T08:07:27;-0.40;99.90
22698;DHT22;11516;51.612;7.510;2023-02-28T08:09:53;-0.20;99.90
22698;DHT22;11516;51.612;7.510;2023-02-28T08:12:18;-0.30;99.90
22698;DHT22;11516;51.612;7.510;2023-02-28T08:14:44;-0.20;99.90
22698;DHT22;11516;51.612;7.510;2023-02-28T08:17:10;-0.10;99.90
22698;DHT22;11516;51.612;7.510;2023-02-28T08:19:36;-0.10;99.90
22698;DHT22;11516;51.612;7.510;2023-02-28T08:22:01;0.10;99.90
22698;DHT22;11516;51.612;7.510;2023-02-28T08:24:27;0.10;99.90
22698;DHT22;11516;51.612;7.510;2023-02-28T08:26:53;0.20;99.90
22698;DHT22;11516;51.612;7.510;2023-02-28T08:29:18;0.30;99.90
22698;DHT22;11516;51.612;7.510;2023-02-28T08:31:44;0.30;99.90
22698;DHT22;11516;51.612;7.510;2023-02-28T08:34:12;0.40;99.90
22698;DHT22;11516;51.612;7.510;2023-02-28T08:36:38;0.50;99.90
22698;DHT22;11516;51.612;7.510;2023-02-28T08:39:05;0.50;99.90
22698;DHT22;11516;51.612;7.510;2023-02-28T08:41:30;0.70;99.90
22698;DHT22;11516;51.612;7.510;2023-02-28T08:43:56;0.70;99.90
22698;DHT22;11516;51.612;7.510;2023-02-28T08:46:23;0.70;99.90
22698;DHT22;11516;51.612;7.510;2023-02-28T08:48:52;0.80;99.90
22698;DHT22;11516;51.612;7.510;2023-02-28T08:51:18;0.90;99.90
22698;DHT22;11516;51.612;7.510;2023-02-28T08:53:47;1.00;99.90
22698;DHT22;11516;51.612;7.510;2023-02-28T08:56:15;1.10;99.90
22698;DHT22;11516;51.612;7.510;2023-02-28T08:58:42;1.20;99.90
22698;DHT22;11516;51.612;7.510;2023-02-28T09:01:20;1.30;99.90
22698;DHT22;11516;51.612;7.510;2023-02-28T09:03:47;1.40;99.90
22698;DHT22;11516;51.612;7.510;2023-02-28T09:06:14;1.50;99.90
22698;DHT22;11516;51.612;7.510;2023-02-28T09:08:41;1.60;99.90
22698;DHT22;11516;51.612;7.510;2023-02-28T09:11:07;1.60;99.90
22698;DHT22;11516;51.612;7.510;2023-02-28T09:13:33;1.70;99.90
22698;DHT22;11516;51.612;7.510;2023-02-28T09:16:00;1.90;99.90
22698;DHT22;11516;51.612;7.510;2023-02-28T09:18:26;1.90;99.90
22698;DHT22;11516;51.612;7.510;2023-02-28T09:20:52;2.00;99.90
22698;DHT22;11516;51.612;7.510;2023-02-28T09:23:18;2.10;99.90
22698;DHT22;11516;51.612;7.510;2023-02-28T09:25:48;2.20;99.90
22698;DHT22;11516;51.612;7.510;2023-02-28T09:28:14;2.30;99.90
22698;DHT22;11516;51.612;7.510;2023-02-28T09:30:41;2.30;99.90
22698;DHT22;11516;51.612;7.510;2023-02-28T09:33:07;2.30;99.90
22698;DHT22;11516;51.612;7.510;2023-02-28T09:35:32;2.50;99.90
22698;DHT22;11516;51.612;7.510;2023-02-28T09:37:58;2.60;99.90
22698;DHT22;11516;51.612;7.510;2023-02-28T09:40:25;2.70;99.90
22698;DHT22;11516;51.612;7.510;2023-02-28T09:42:53;2.80;99.90
22698;DHT22;11516;51.612;7.510;2023-02-28T09:45:35;2.90;99.90
22698;DHT22;11516;51.612;7.510;2023-02-28T09:48:12;3.00;99.90
22698;DHT22;11516;51.612;7.510;2023-02-28T09:50:44;3.10;99.90
22698;DHT22;11516;51.612;7.510;2023-02-28T09:53:26;3.30;99.90
22698;DHT22;11516;51.612;7.510;2023-02-28T09:55:59;3.30;99.90
22698;DHT22;11516;51.612;7.510;2023-02-28T09:58:34;3.40;98.80
22698;DHT22;11516;51.612;7.510;2023-02-28T10:01:09;3.50;98.40
22698;DHT22;11516;51.612;7.510;2023-02-28T10:03:39;3.70;98.80
22698;DHT22;11516;51.612;7.510;2023-02-28T10:06:14;3.70;97.00
22698;DHT22;11516;51.612;7.510;2023-02-28T10:09:03;3.90;96.30
22698;DHT22;11516;51.612;7.510;2023-02-28T10:11:32;4.00;96.20
22698;DHT22;11516;51.612;7.510;2023-02-28T10:14:16;4.10;95.60
22698;DHT22;11516;51.612;7.510;2023-02-28T10:16:50;4.00;95.10
22698;DHT22;11516;51.612;7.510;2023-02-28T10:19:28;4.10;94.40
22698;DHT22;11516;51.612;7.510;2023-02-28T10:22:20;4.10;93.40
22698;DHT22;11516;51.612;7.510;2023-02-28T10:24:49;4.20;93.20
22698;DHT22;11516;51.612;7.510;2023-02-28T10:29:50;4.50;92.20
22698;DHT22;11516;51.612;7.510;2023-02-28T10:32:21;4.40;91.40
22698;DHT22;11516;51.612;7.510;2023-02-28T10:34:54;4.40;90.20
22698;DHT22;11516;51.612;7.510;2023-02-28T10:37:22;4.40;90.00
22698;DHT22;11516;51.612;7.510;2023-02-28T10:39:47;4.30;90.00
22698;DHT22;11516;51.612;7.510;2023-02-28T10:45:14;4.30;89.40
22698;DHT22;11516;51.612;7.510;2023-02-28T10:47:53;4.30;89.90
22698;DHT22;11516;51.612;7.510;2023-02-28T10:50:39;4.40;88.10
22698;DHT22;11516;51.612;7.510;2023-02-28T11:01:26;4.40;88.40
22698;DHT22;11516;51.612;7.510;2023-02-28T11:03:59;4.40;87.80
22698;DHT22;11516;51.612;7.510;2023-02-28T11:06:32;4.50;87.90
22698;DHT22;11516;51.612;7.510;2023-02-28T11:09:01;4.50;89.20
22698;DHT22;11516;51.612;7.510;2023-02-28T11:11:29;4.50;86.80
22698;DHT22;11516;51.612;7.510;2023-02-28T11:14:04;4.60;86.90
22698;DHT22;11516;51.612;7.510;2023-02-28T11:16:36;4.60;86.10
22698;DHT22;11516;51.612;7.510;2023-02-28T11:19:03;4.50;85.70
22698;DHT22;11516;51.612;7.510;2023-02-28T11:21:33;4.60;86.70
22698;DHT22;11516;51.612;7.510;2023-02-28T11:24:05;4.60;85.80
22698;DHT22;11516;51.612;7.510;2023-02-28T11:26:44;4.60;85.70
22698;DHT22;11516;51.612;7.510;2023-02-28T11:32:19;4.80;85.30
22698;DHT22;11516;51.612;7.510;2023-02-28T11:34:46;4.90;87.20
22698;DHT22;11516;51.612;7.510;2023-02-28T11:37:15;5.20;86.80
22698;DHT22;11516;51.612;7.510;2023-02-28T11:39:42;5.60;86.00
22698;DHT22;11516;51.612;7.510;2023-02-28T11:42:15;6.40;83.50
22698;DHT22;11516;51.612;7.510;2023-02-28T11:47:42;7.70;79.60
22698;DHT22;11516;51.612;7.510;2023-02-28T11:53:21;9.00;74.90
22698;DHT22;11516;51.612;7.510;2023-02-28T11:55:59;8.30;76.40
22698;DHT22;11516;51.612;7.510;2023-02-28T12:01:32;6.90;79.70
22698;DHT22;11516;51.612;7.510;2023-02-28T12:07:30;6.60;82.90
22698;DHT22;11516;51.612;7.510;2023-02-28T12:15:29;5.70;83.10
22698;DHT22;11516;51.612;7.510;2023-02-28T12:23:26;6.50;83.80
22698;DHT22;11516;51.612;7.510;2023-02-28T12:28:31;7.80;80.80
22698;DHT22;11516;51.612;7.510;2023-02-28T12:31:08;8.30;78.40
22698;DHT22;11516;51.612;7.510;2023-02-28T12:33:40;9.00;74.60
22698;DHT22;11516;51.612;7.510;2023-02-28T12:36:13;8.50;74.50
22698;DHT22;11516;51.612;7.510;2023-02-28T12:38:50;8.40;75.80
22698;DHT22;11516;51.612;7.510;2023-02-28T12:41:26;8.40;75.00
22698;DHT22;11516;51.612;7.510;2023-02-28T12:44:02;8.70;74.70
22698;DHT22;11516;51.612;7.510;2023-02-28T12:46:34;8.90;73.90
22698;DHT22;11516;51.612;7.510;2023-02-28T12:49:16;8.50;73.40
22698;DHT22;11516;51.612;7.510;2023-02-28T12:51:44;8.10;75.20
22698;DHT22;11516;51.612;7.510;2023-02-28T12:56:50;7.50;77.10
22698;DHT22;11516;51.612;7.510;2023-02-28T12:59:22;6.80;78.90
22698;DHT22;11516;51.612;7.510;2023-02-28T13:04:32;6.70;82.60
22698;DHT22;11516;51.612;7.510;2023-02-28T13:07:20;7.70;80.20
22698;DHT22;11516;51.612;7.510;2023-02-28T13:09:54;9.00;75.40
22698;DHT22;11516;51.612;7.510;2023-02-28T13:12:22;9.20;71.70
22698;DHT22;11516;51.612;7.510;2023-02-28T13:14:48;9.00;71.70
22698;DHT22;11516;51.612;7.510;2023-02-28T13:17:22;8.80;72.70
22698;DHT22;11516;51.612;7.510;2023-02-28T13:22:42;7.90;77.00
22698;DHT22;11516;51.612;7.510;2023-02-28T13:28:09;8.80;74.20
22698;DHT22;11516;51.612;7.510;2023-02-28T13:33:33;8.00;74.70
22698;DHT22;11516;51.612;7.510;2023-02-28T13:38:41;8.10;74.50
22698;DHT22;11516;51.612;7.510;2023-02-28T13:44:08;9.00;74.20
22698;DHT22;11516;51.612;7.510;2023-02-28T13:46:36;8.70;72.10
22698;DHT22;11516;51.612;7.510;2023-02-28T13:49:26;8.40;74.60
22698;DHT22;11516;51.612;7.510;2023-02-28T14:00:02;9.20;72.50
22698;DHT22;11516;51.612;7.510;2023-02-28T14:02:48;9.80;70.70
22698;DHT22;11516;51.612;7.510;2023-02-28T14:05:20;9.90;68.70
22698;DHT22;11516;51.612;7.510;2023-02-28T14:07:57;9.30;71.10
22698;DHT22;11516;51.612;7.510;2023-02-28T14:10:36;9.30;70.50
22698;DHT22;11516;51.612;7.510;2023-02-28T14:16:04;8.60;72.80
22698;DHT22;11516;51.612;7.510;2023-02-28T14:18:34;8.90;72.40
22698;DHT22;11516;51.612;7.510;2023-02-28T14:21:26;9.40;70.70
22698;DHT22;11516;51.612;7.510;2023-02-28T14:27:00;9.30;72.50
22698;DHT22;11516;51.612;7.510;2023-02-28T14:32:34;9.20;72.70
22698;DHT22;11516;51.612;7.510;2023-02-28T14:37:54;8.90;73.50
22698;DHT22;11516;51.612;7.510;2023-02-28T14:40:32;8.50;75.40
22698;DHT22;11516;51.612;7.510;2023-02-28T14:43:00;7.90;76.70
22698;DHT22;11516;51.612;7.510;2023-02-28T14:45:30;8.00;76.30
22698;DHT22;11516;51.612;7.510;2023-02-28T14:47:57;8.40;75.60
22698;DHT22;11516;51.612;7.510;2023-02-28T14:50:29;8.60;75.00
22698;DHT22;11516;51.612;7.510;2023-02-28T14:52:56;8.60;75.50
22698;DHT22;11516;51.612;7.510;2023-02-28T14:55:34;8.70;73.50
22698;DHT22;11516;51.612;7.510;2023-02-28T14:58:05;8.10;75.00
22698;DHT22;11516;51.612;7.510;2023-02-28T15:00:33;8.40;75.40
22698;DHT22;11516;51.612;7.510;2023-02-28T15:03:01;8.90;72.70
22698;DHT22;11516;51.612;7.510;2023-02-28T15:05:37;8.70;73.50
22698;DHT22;11516;51.612;7.510;2023-02-28T15:08:10;8.30;74.00
22698;DHT22;11516;51.612;7.510;2023-02-28T15:10:37;8.40;74.90
22698;DHT22;11516;51.612;7.510;2023-02-28T15:13:06;8.90;74.20
22698;DHT22;11516;51.612;7.510;2023-02-28T15:18:42;9.00;72.70
22698;DHT22;11516;51.612;7.510;2023-02-28T15:21:15;8.60;73.30
22698;DHT22;11516;51.612;7.510;2023-02-28T15:23:45;8.50;73.10
22698;DHT22;11516;51.612;7.510;2023-02-28T15:26:20;8.40;73.10
22698;DHT22;11516;51.612;7.510;2023-02-28T15:28:54;8.30;73.80
22698;DHT22;11516;51.612;7.510;2023-02-28T15:31:31;8.50;72.90
22698;DHT22;11516;51.612;7.510;2023-02-28T15:34:02;8.80;72.90
22698;DHT22;11516;51.612;7.510;2023-02-28T15:36:33;9.00;72.60
22698;DHT22;11516;51.612;7.510;2023-02-28T15:39:03;9.00;71.90
22698;DHT22;11516;51.612;7.510;2023-02-28T15:41:31;9.00;72.60
22698;DHT22;11516;51.612;7.510;2023-02-28T15:49:33;8.90;72.90
22698;DHT22;11516;51.612;7.510;2023-02-28T15:52:02;8.80;72.50
22698;DHT22;11516;51.612;7.510;2023-02-28T15:54:34;8.40;73.00
22698;DHT22;11516;51.612;7.510;2023-02-28T15:57:06;8.30;73.40
22698;DHT22;11516;51.612;7.510;2023-02-28T15:59:35;8.50;73.10
22698;DHT22;11516;51.612;7.510;2023-02-28T16:04:29;8.50;73.40
22698;DHT22;11516;51.612;7.510;2023-02-28T16:07:01;8.30;73.40
22698;DHT22;11516;51.612;7.510;2023-02-28T16:09:27;8.50;73.50
22698;DHT22;11516;51.612;7.510;2023-02-28T16:11:56;8.60;73.40
22698;DHT22;11516;51.612;7.510;2023-02-28T16:14:24;8.50;73.90
22698;DHT22;11516;51.612;7.510;2023-02-28T16:16:54;8.10;74.60
22698;DHT22;11516;51.612;7.510;2023-02-28T16:19:22;7.60;76.10
22698;DHT22;11516;51.612;7.510;2023-02-28T16:21:48;7.10;76.60
22698;DHT22;11516;51.612;7.510;2023-02-28T16:24:14;6.90;78.50
22698;DHT22;11516;51.612;7.510;2023-02-28T16:26:41;6.40;79.30
22698;DHT22;11516;51.612;7.510;2023-02-28T16:29:13;6.00;80.40
22698;DHT22;11516;51.612;7.510;2023-02-28T16:31:40;6.00;81.00
22698;DHT22;11516;51.612;7.510;2023-02-28T16:34:06;5.90;81.30
22698;DHT22;11516;51.612;7.510;2023-02-28T16:36:31;5.80;82.50
22698;DHT22;11516;51.612;7.510;2023-02-28T16:38:57;5.60;83.10
22698;DHT22;11516;51.612;7.510;2023-02-28T16:41:26;5.60;83.60
22698;DHT22;11516;51.612;7.510;2023-02-28T16:43:54;5.40;84.10
22698;DHT22;11516;51.612;7.510;2023-02-28T16:46:25;5.30;84.60
22698;DHT22;11516;51.612;7.510;2023-02-28T16:48:50;5.30;84.90
22698;DHT22;11516;51.612;7.510;2023-02-28T16:51:18;5.20;84.80
22698;DHT22;11516;51.612;7.510;2023-02-28T16:53:44;5.20;85.20
22698;DHT22;11516;51.612;7.510;2023-02-28T16:56:22;5.10;85.10
22698;DHT22;11516;51.612;7.510;2023-02-28T16:58:51;5.20;85.30
22698;DHT22;11516;51.612;7.510;2023-02-28T17:01:22;5.10;86.00
22698;DHT22;11516;51.612;7.510;2023-02-28T17:03:53;5.00;86.20
22698;DHT22;11516;51.612;7.510;2023-02-28T17:06:26;5.00;86.20
22698;DHT22;11516;51.612;7.510;2023-02-28T17:08:53;4.90;86.80
22698;DHT22;11516;51.612;7.510;2023-02-28T17:11:19;4.80;87.00
22698;DHT22;11516;51.612;7.510;2023-02-28T17:13:46;4.80;87.40
22698;DHT22;11516;51.612;7.510;2023-02-28T17:16:35;4.70;87.30
22698;DHT22;11516;51.612;7.510;2023-02-28T17:19:06;4.70;88.10
22698;DHT22;11516;51.612;7.510;2023-02-28T17:21:32;4.70;88.40
22698;DHT22;11516;51.612;7.510;2023-02-28T17:23:59;4.60;88.60
22698;DHT22;11516;51.612;7.510;2023-02-28T17:26:25;4.50;88.90
22698;DHT22;11516;51.612;7.510;2023-02-28T17:28:52;4.50;89.90
22698;DHT22;11516;51.612;7.510;2023-02-28T17:31:19;4.50;89.40
22698;DHT22;11516;51.612;7.510;2023-02-28T17:33:44;4.40;89.80
22698;DHT22;11516;51.612;7.510;2023-02-28T17:36:14;4.40;90.00
22698;DHT22;11516;51.612;7.510;2023-02-28T17:38:40;4.30;90.20
22698;DHT22;11516;51.612;7.510;2023-02-28T17:41:06;4.40;90.20
22698;DHT22;11516;51.612;7.510;2023-02-28T17:43:31;4.20;90.30
22698;DHT22;11516;51.612;7.510;2023-02-28T17:45:57;4.20;90.50
22698;DHT22;11516;51.612;7.510;2023-02-28T17:48:23;4.00;90.60
22698;DHT22;11516;51.612;7.510;2023-02-28T17:50:49;4.00;91.00
22698;DHT22;11516;51.612;7.510;2023-02-28T17:53:15;3.80;91.20
22698;DHT22;11516;51.612;7.510;2023-02-28T17:55:40;3.70;91.70